Terminal Aerodrome Forecast
Issued by NWS Corpus Christi, TX

Home | Current Version | Previous Version | Text Only | Print | Product List | Glossary On
Versions: 1 2 3 4 5 6 7 8 9 10 11 12 13
934
FTUS44 KCRP 201125
TAFCRP
TAF
KCRP 201125Z 2012/2112 35005KT P6SM SCT100 BKN250
     FM201900 10008KT P6SM BKN050
     FM210100 15005KT P6SM SCT050
     FM211000 VRB03KT 6SM BR FEW050=

USA.gov is the U.S. government's official web portal to all federal, state and local government web resources and services.